< < Back
Terminal Aerodrome Forecast


Current Version              Previous Versions:   1  2  3  4  5  6  7  8  9  

Terminal Aerodrome Forecast

136
FTUS42 KJAX 301100
TAFGNV
TAF
KGNV 301120Z 3012/3112 32003KT P6SM FEW015 FEW070
     FM302100 27006KT P6SM SCT060
     FM310200 09003KT P6SM FEW070=



Latest METAR

978
SAUS70 KWBC 301100 RRF
MTRGNV
METAR KGNV 301053Z 32006KT 10SM CLR 20/18 A2996 RMK AO2 SLP143
T02000178


USA.gov is the U.S. government's official web portal to all federal, state and local government web resources and services.